Terminal Aerodrome Forecast
Issued by NWS

Home | Current Version | Previous Version | Text Only | Print | Product List | Glossary Off
Versions: 1 2 3 4 5 6 7 8 9 10 11 12 13 14

000
FTUS42 KMHX 062321
TAFOAJ
TAF
KOAJ 062321Z 0700/0724 20008KT P6SM VCTS FEW050CB BKN100
     FM070100 19005KT P6SM BKN250
     FM070900 20003KT 4SM BR SCT008
     FM071300 20006KT P6SM SCT250
     FM071800 19005KT P6SM VCTS SCT050CB
      AMD LTD TO CLD VIS AND WIND=

USA.gov is the U.S. government's official web portal to all federal, state and local government web resources and services.